Time;durP1;ratioP1;P1;durP2;ratioP2;P2;SDS_P1;SDS_P2;PMS_P1;PMS_P2;Temp;Humidity;BMP_temperature;BMP_pressure;BME280_temperature;BME280_humidity;BME280_pressure;Samples;Min_cycle;Max_cycle;Signal;HPM_P1;HPM_P2
2022/07/15 00:00:16;;;;;;;5.12;1.52;;;;;;;27.65;35.51;99364.84;4397782;32;34530;-84
2022/07/15 00:02:49;;;;;;;4.53;1.73;;;;;;;27.22;36.82;99404.19;4410045;32;32450;-83
2022/07/15 00:05:25;;;;;;;3.05;1.70;;;;;;;26.96;37.35;99440.69;4397222;32;31754;-83
2022/07/15 00:08:00;;;;;;;3.05;1.58;;;;;;;26.98;37.14;99431.91;4397717;32;33855;-83
2022/07/15 00:10:31;;;;;;;3.35;1.50;;;;;;;27.01;37.03;99428.44;4385352;32;33614;-82
2022/07/15 00:13:01;;;;;;;8.40;1.80;;;;;;;27.12;36.80;99399.66;4397173;32;33285;-83
2022/07/15 00:15:32;;;;;;;6.97;1.70;;;;;;;27.03;37.01;99386.72;4397395;32;33023;-83
2022/07/15 00:18:06;;;;;;;3.30;1.58;;;;;;;27.08;37.11;99403.47;4397390;32;34385;-83
2022/07/15 00:20:35;;;;;;;5.53;1.80;;;;;;;27.13;37.17;99417.41;4397203;32;33017;-82
2022/07/15 00:23:05;;;;;;;5.70;1.62;;;;;;;27.19;36.87;99411.31;4397864;32;33483;-80
2022/07/15 00:25:39;;;;;;;4.37;1.60;;;;;;;27.10;37.18;99413.25;4397153;32;31832;-80
2022/07/15 00:28:07;;;;;;;5.90;1.62;;;;;;;27.19;37.14;99402.84;4409690;32;33551;-80
2022/07/15 00:30:40;;;;;;;4.05;1.80;;;;;;;27.24;37.07;99393.41;4397365;32;34383;-80
2022/07/15 00:33:10;;;;;;;3.28;1.50;;;;;;;27.27;37.15;99383.47;4410308;32;33877;-80
2022/07/15 00:35:38;;;;;;;6.70;2.05;;;;;;;27.08;37.62;99373.31;4397391;32;33281;-80
2022/07/15 00:38:12;;;;;;;5.07;1.62;;;;;;;27.03;37.75;99367.00;4410218;32;33704;-80
2022/07/15 00:40:45;;;;;;;3.65;1.60;;;;;;;27.05;37.74;99359.88;4397488;32;32842;-80
2022/07/15 00:43:17;;;;;;;5.78;1.92;;;;;;;27.10;37.63;99373.81;4409843;32;34708;-80
2022/07/15 00:45:46;;;;;;;3.90;1.80;;;;;;;27.09;37.65;99372.16;4410130;32;33928;-80
2022/07/15 00:48:19;;;;;;;2.65;1.40;;;;;;;26.99;38.03;99352.72;4397605;32;32055;-80
2022/07/15 00:50:50;;;;;;;6.18;2.00;;;;;;;27.00;38.11;99351.56;4397817;32;34292;-80
2022/07/15 00:53:24;;;;;;;4.45;1.55;;;;;;;27.09;38.00;99348.78;4410298;32;33616;-80
2022/07/15 00:55:59;;;;;;;5.28;1.70;;;;;;;27.08;37.93;99344.31;4399576;32;33230;-80
2022/07/15 00:58:34;;;;;;;3.15;1.70;;;;;;;27.08;37.99;99347.94;4401627;32;33279;-80
2022/07/15 01:01:06;;;;;;;4.78;1.55;;;;;;;27.10;37.98;99340.00;4414838;32;35151;-80
2022/07/15 01:03:35;;;;;;;4.93;1.80;;;;;;;27.21;37.75;99340.53;4402023;32;35159;-80
2022/07/15 01:06:05;;;;;;;6.00;2.25;;;;;;;27.14;38.00;99363.56;4402173;32;34329;-80
2022/07/15 01:08:38;;;;;;;4.22;1.83;;;;;;;27.36;37.62;99379.50;4398426;32;34549;-78
2022/07/15 01:11:11;;;;;;;3.78;1.95;;;;;;;27.34;37.65;99386.63;4398900;32;34685;-80
2022/07/15 01:13:41;;;;;;;3.65;1.87;;;;;;;27.32;37.63;99400.22;4397201;32;33848;-80
2022/07/15 01:16:14;;;;;;;4.80;1.80;;;;;;;27.32;37.60;99394.56;4409878;32;33414;-80
2022/07/15 01:18:43;;;;;;;4.25;2.03;;;;;;;27.30;37.74;99389.25;4409832;32;33360;-80
2022/07/15 01:21:11;;;;;;;6.28;2.17;;;;;;;27.20;38.24;99409.31;4384233;32;34347;-80
2022/07/15 01:23:43;;;;;;;6.15;1.87;;;;;;;27.40;37.56;99408.69;4398849;32;33935;-81
2022/07/15 01:26:14;;;;;;;3.50;1.98;;;;;;;27.32;37.86;99417.94;4399100;32;33272;-80
2022/07/15 01:28:47;;;;;;;3.87;1.92;;;;;;;27.55;37.33;99418.69;4386547;32;32299;-80
2022/07/15 01:31:18;;;;;;;6.03;1.90;;;;;;;27.46;37.53;99424.28;4398925;32;33108;-80
2022/07/15 01:33:46;;;;;;;6.65;2.20;;;;;;;27.47;37.57;99419.50;4398801;32;32550;-80
2022/07/15 01:36:20;;;;;;;5.22;2.20;;;;;;;27.29;38.09;99427.09;4398739;32;33729;-80
2022/07/15 01:38:53;;;;;;;6.50;1.98;;;;;;;27.02;38.83;99425.31;4411397;32;34645;-80
2022/07/15 01:41:42;;;;;;;4.45;1.92;;;;;;;27.12;38.59;99421.37;4390396;32;33232;-80
2022/07/15 01:44:14;;;;;;;4.68;1.80;;;;;;;27.22;38.62;99415.47;4398846;32;33887;-80
2022/07/15 01:46:43;;;;;;;5.97;2.00;;;;;;;27.13;38.86;99408.94;4398539;32;31747;-80
2022/07/15 01:49:29;;;;;;;6.72;2.17;;;;;;;27.03;39.14;99412.88;4398663;32;33822;-80
2022/07/15 01:51:59;;;;;;;5.12;2.30;;;;;;;27.06;39.29;99415.06;4400160;32;34074;-80
2022/07/15 01:54:29;;;;;;;4.80;2.30;;;;;;;26.99;39.65;99417.50;4398436;32;33533;-80
2022/07/15 01:57:02;;;;;;;3.90;2.10;;;;;;;27.03;39.55;99410.06;4399024;32;34308;-80
2022/07/15 01:59:34;;;;;;;3.65;2.05;;;;;;;26.91;39.87;99413.47;4398443;32;33716;-80
2022/07/15 02:02:01;;;;;;;4.12;2.12;;;;;;;27.03;39.57;99412.88;4398039;32;33947;-80
2022/07/15 02:04:37;;;;;;;9.00;2.00;;;;;;;26.24;41.57;99435.19;4398689;32;32681;-80
2022/07/15 02:07:08;;;;;;;8.13;2.20;;;;;;;26.66;40.69;99441.47;4411051;32;33172;-80
2022/07/15 02:09:37;;;;;;;6.65;2.05;;;;;;;26.63;40.79;99426.06;4399418;32;33737;-80
2022/07/15 02:12:13;;;;;;;7.07;2.40;;;;;;;26.69;40.61;99407.88;4398837;32;35091;-80
2022/07/15 02:14:47;;;;;;;7.57;2.22;;;;;;;26.74;40.64;99399.28;4399245;32;32663;-80
2022/07/15 02:17:21;;;;;;;5.22;2.10;;;;;;;27.02;39.93;99405.59;4398295;32;31773;-80
2022/07/15 02:19:49;;;;;;;4.45;2.25;;;;;;;26.88;40.26;99405.66;4398231;32;32231;-80
2022/07/15 02:22:17;;;;;;;6.53;2.37;;;;;;;27.00;40.00;99418.34;4385512;32;33280;-80
2022/07/15 02:24:48;;;;;;;6.55;2.45;;;;;;;26.86;40.33;99436.13;4410817;32;33998;-80
2022/07/15 02:27:22;;;;;;;4.43;1.80;;;;;;;26.82;40.60;99439.91;4411175;32;33788;-80
2022/07/15 02:29:56;;;;;;;3.70;2.07;;;;;;;26.93;40.37;99449.75;4397837;32;34294;-80
2022/07/15 02:32:29;;;;;;;3.72;2.00;;;;;;;26.91;40.24;99468.97;4398342;32;34472;-80
2022/07/15 02:35:00;;;;;;;5.80;2.00;;;;;;;26.88;40.19;99492.97;4398791;32;35080;-79
2022/07/15 02:37:29;;;;;;;3.42;1.80;;;;;;;26.92;40.20;99512.87;4386144;32;31827;-80
2022/07/15 02:39:59;;;;;;;5.75;1.80;;;;;;;26.85;39.85;99524.59;4411026;32;33684;-80
2022/07/15 02:42:30;;;;;;;5.93;1.80;;;;;;;26.95;39.71;99528.28;4398850;32;32971;-80
2022/07/15 02:45:04;;;;;;;6.82;2.03;;;;;;;26.92;39.49;99524.12;4398957;32;34607;-77
2022/07/15 02:47:36;;;;;;;2.97;1.58;;;;;;;26.89;39.49;99517.16;4398816;32;32871;-78
2022/07/15 02:50:10;;;;;;;3.25;1.42;;;;;;;27.04;38.88;99515.97;4385582;32;33336;-79
2022/07/15 02:52:41;;;;;;;3.75;1.30;;;;;;;26.80;36.78;99515.44;4398930;32;34313;-79
2022/07/15 02:55:15;;;;;;;3.60;1.30;;;;;;;26.88;36.71;99509.03;4410506;32;34744;-81
2022/07/15 02:57:47;;;;;;;4.53;1.12;;;;;;;26.88;36.02;99507.03;4398071;32;33555;-78
2022/07/15 03:00:19;;;;;;;;;;;;;;;26.98;35.65;99517.25;4399071;32;34471;-81
2022/07/15 03:02:53;;;;;;;6.03;1.10;;;;;;;27.00;34.66;99509.31;4394249;32;34181;-82
2022/07/15 03:05:23;;;;;;;1.85;1.10;;;;;;;27.02;34.96;99504.19;4376825;32;33931;-82
2022/07/15 03:07:58;;;;;;;1.70;1.00;;;;;;;26.93;34.75;99506.09;4371063;32;32766;-82
2022/07/15 03:10:30;;;;;;;2.80;1.30;;;;;;;27.05;34.42;99517.62;4383227;32;32310;-82
2022/07/15 03:12:58;;;;;;;1.83;1.00;;;;;;;26.95;34.44;99511.38;4382704;32;32974;-82
2022/07/15 03:15:32;;;;;;;3.92;1.17;;;;;;;26.98;34.10;99499.50;4395562;32;32478;-82
2022/07/15 03:18:03;;;;;;;1.73;0.98;;;;;;;27.00;34.22;99500.84;4395227;32;31547;-82
2022/07/15 03:20:34;;;;;;;2.80;1.10;;;;;;;27.09;34.33;99509.34;4395338;32;32250;-82
2022/07/15 03:23:02;;;;;;;1.60;1.00;;;;;;;27.20;33.91;99519.19;4395916;32;35502;-82
2022/07/15 03:25:35;;;;;;;2.30;1.02;;;;;;;27.02;34.03;99523.91;4382908;32;32375;-82
2022/07/15 03:28:04;;;;;;;3.35;1.20;;;;;;;27.12;34.25;99523.63;4383491;32;33376;-81
2022/07/15 03:30:33;;;;;;;1.45;1.05;;;;;;;27.12;34.16;99518.00;4395705;32;33581;-82
2022/07/15 03:33:00;;;;;;;1.67;0.95;;;;;;;27.09;34.32;99524.28;4395796;32;34384;-81
2022/07/15 03:35:32;;;;;;;2.60;1.10;;;;;;;27.13;34.36;99508.41;4383484;32;33817;-82
2022/07/15 03:38:04;;;;;;;1.70;1.00;;;;;;;27.23;34.02;99507.28;4383875;32;34497;-82
2022/07/15 03:40:38;;;;;;;5.20;1.33;;;;;;;27.19;34.28;99507.09;4383311;32;33833;-81
2022/07/15 03:43:13;;;;;;;2.37;1.10;;;;;;;27.15;34.27;99506.09;4395496;32;34401;-81
2022/07/15 03:45:47;;;;;;;2.78;1.30;;;;;;;26.95;34.64;99512.22;4370557;32;32638;-81
2022/07/15 03:48:18;;;;;;;1.77;1.05;;;;;;;27.04;34.82;99504.69;4383196;32;33318;-82
2022/07/15 03:50:47;;;;;;;2.42;1.05;;;;;;;26.97;35.24;99520.37;4395195;32;34675;-82
2022/07/15 03:53:23;;;;;;;4.50;1.35;;;;;;;27.18;35.03;99513.06;4395082;32;35034;-82
2022/07/15 03:56:00;;;;;;;4.97;1.20;;;;;;;27.34;34.92;99522.72;4395046;32;34488;-82
2022/07/15 03:58:33;;;;;;;2.62;1.10;;;;;;;27.27;35.41;99539.31;4382126;32;31682;-81
2022/07/15 04:01:01;;;;;;;2.85;1.40;;;;;;;27.20;35.76;99559.47;4394945;32;33731;-80
2022/07/15 04:03:35;;;;;;;3.22;1.30;;;;;;;26.63;37.18;99554.75;4382755;32;34294;-80
2022/07/15 04:06:05;;;;;;;4.93;1.20;;;;;;;26.71;36.65;99549.16;4382423;32;33904;-80
2022/07/15 04:08:40;;;;;;;4.25;1.25;;;;;;;26.53;36.93;99541.75;4395267;32;33114;-80
2022/07/15 04:11:13;;;;;;;2.75;1.20;;;;;;;26.33;37.32;99540.22;4382767;32;33786;-80
2022/07/15 04:13:47;;;;;;;;;;;;;;;26.25;37.44;99538.13;4382907;32;33391;-80
2022/07/15 04:16:15;;;;;;;4.65;1.00;;;;;;;26.65;36.68;99535.56;4383006;32;34322;-80
2022/07/15 04:18:45;;;;;;;3.92;1.12;;;;;;;26.29;37.40;99536.34;4394992;32;33404;-80
2022/07/15 04:21:19;;;;;;;2.05;1.00;;;;;;;26.36;37.26;99539.59;4382364;32;34026;-80
2022/07/15 04:23:50;;;;;;;2.92;1.08;;;;;;;26.27;37.57;99542.31;4408493;32;35502;-81
2022/07/15 04:26:18;;;;;;;1.92;0.93;;;;;;;26.24;37.90;99553.34;4395099;32;33847;-81
2022/07/15 04:28:51;;;;;;;2.33;1.15;;;;;;;26.04;38.34;99567.84;4382456;32;31662;-81
2022/07/15 04:31:26;;;;;;;;;;;;;;;25.71;39.07;99564.34;4376107;32;32391;-81
2022/07/15 04:33:57;;;;;;;2.17;1.10;;;;;;;25.76;39.01;99550.19;4382901;32;33431;-81
2022/07/15 04:36:31;;;;;;;2.58;1.02;;;;;;;25.82;39.29;99571.44;4382323;32;32569;-81
2022/07/15 04:38:59;;;;;;;3.12;1.25;;;;;;;25.86;38.96;99566.84;4394758;32;33209;-80
2022/07/15 04:41:33;;;;;;;3.50;1.20;;;;;;;25.92;39.04;99574.03;4369669;32;33363;-82
2022/07/15 04:44:04;;;;;;;3.75;1.30;;;;;;;25.43;40.47;99574.69;4394733;32;34646;-82
2022/07/15 04:46:37;;;;;;;4.18;1.30;;;;;;;25.41;40.55;99572.19;4369348;32;32269;-81
2022/07/15 04:52:04;;;;;;;2.83;1.35;;;;;;;25.64;40.50;99584.44;4396562;32;34524;-78
2022/07/15 04:54:34;;;;;;;4.95;1.30;;;;;;;25.38;41.43;99577.59;4407961;32;34320;-78
2022/07/15 04:57:09;;;;;;;6.35;1.77;;;;;;;25.55;41.21;99577.84;4381056;32;33310;-78
2022/07/15 04:59:43;;;;;;;3.80;1.42;;;;;;;25.75;40.89;99576.66;4381956;32;31793;-78
2022/07/15 05:02:16;;;;;;;6.80;1.77;;;;;;;25.69;41.09;99586.31;4408313;32;34645;-78
2022/07/15 05:04:44;;;;;;;4.70;1.92;;;;;;;25.66;41.35;99582.16;4381694;32;33135;-78
2022/07/15 05:07:16;;;;;;;5.53;1.60;;;;;;;25.65;41.57;99591.72;4394951;32;34519;-78
2022/07/15 05:09:44;;;;;;;3.15;1.30;;;;;;;25.27;42.43;99582.59;4395109;32;33278;-78
2022/07/15 05:12:12;;;;;;;4.47;1.50;;;;;;;25.04;43.23;99581.59;4381844;32;32123;-78
2022/07/15 05:14:48;;;;;;;4.12;1.60;;;;;;;24.44;44.69;99570.19;4408222;32;34998;-78
2022/07/15 05:17:16;;;;;;;3.30;1.60;;;;;;;24.45;44.82;99579.44;4394097;32;32046;-79
2022/07/15 05:19:46;;;;;;;5.32;1.50;;;;;;;24.76;44.21;99574.19;4407118;32;33234;-77
2022/07/15 05:22:16;;;;;;;4.78;1.70;;;;;;;24.95;43.79;99589.84;4394593;32;33741;-78
2022/07/15 05:24:44;;;;;;;4.95;1.85;;;;;;;24.59;45.09;99605.63;4394087;32;33837;-78
2022/07/15 05:27:16;;;;;;;3.53;1.70;;;;;;;24.47;45.63;99614.47;4381309;32;33025;-78
2022/07/15 05:29:48;;;;;;;3.97;1.83;;;;;;;24.26;46.76;99605.50;4394703;32;33212;-80
2022/07/15 05:32:21;;;;;;;3.87;1.80;;;;;;;24.00;47.67;99600.53;4394729;32;33886;-77
2022/07/15 05:34:49;;;;;;;5.82;1.80;;;;;;;23.94;48.30;99603.41;4407322;32;34444;-78
2022/07/15 05:37:24;;;;;;;4.40;1.85;;;;;;;23.83;48.69;99617.81;4388192;32;34820;-78
2022/07/15 05:39:58;;;;;;;3.17;1.50;;;;;;;23.91;48.80;99629.22;4407819;32;33443;-78
2022/07/15 05:42:32;;;;;;;4.68;1.80;;;;;;;23.90;48.87;99624.75;4407667;32;34340;-78
2022/07/15 05:45:06;;;;;;;5.65;1.90;;;;;;;23.31;50.70;99631.53;4407897;32;34553;-77
2022/07/15 05:47:33;;;;;;;5.50;1.80;;;;;;;23.70;49.67;99641.78;4393418;32;32416;-78
2022/07/15 05:50:06;;;;;;;3.87;1.70;;;;;;;23.81;49.53;99637.75;4394017;32;33936;-77
2022/07/15 05:52:48;;;;;;;5.45;2.03;;;;;;;23.36;50.85;99641.84;4382305;32;33976;-78
2022/07/15 05:55:23;;;;;;;6.10;2.10;;;;;;;23.67;49.90;99647.16;4394615;32;34498;-78
2022/07/15 05:57:53;;;;;;;5.93;1.80;;;;;;;23.83;49.50;99655.09;4393933;32;33933;-78
2022/07/15 06:00:27;;;;;;;3.92;1.90;;;;;;;24.02;49.12;99672.00;4381629;32;31895;-78
2022/07/15 06:02:55;;;;;;;3.70;1.95;;;;;;;23.48;50.71;99683.44;4394411;32;34648;-79
2022/07/15 06:05:28;;;;;;;4.72;2.08;;;;;;;23.25;51.51;99683.09;4394049;32;34588;-80
2022/07/15 06:08:01;;;;;;;3.00;1.77;;;;;;;23.39;51.36;99688.87;4394208;32;34803;-80
2022/07/15 06:10:32;;;;;;;3.37;1.87;;;;;;;23.16;52.27;99682.06;4383350;32;31931;-80
2022/07/15 06:13:00;;;;;;;4.28;2.15;;;;;;;23.15;52.24;99679.53;4383647;32;33081;-80
2022/07/15 06:15:30;;;;;;;5.35;1.92;;;;;;;22.93;53.15;99682.78;4395651;32;35396;-80
2022/07/15 06:18:03;;;;;;;4.28;1.92;;;;;;;23.35;51.94;99675.75;4395131;32;34704;-80
2022/07/15 06:20:31;;;;;;;3.78;2.17;;;;;;;23.52;51.51;99684.53;4383023;32;31603;-80
2022/07/15 06:23:02;;;;;;;6.45;1.90;;;;;;;23.24;52.13;99684.22;4383164;32;33104;-80
2022/07/15 06:25:30;;;;;;;5.25;2.03;;;;;;;23.48;51.39;99689.03;4396077;32;34375;-79
2022/07/15 06:27:58;;;;;;;3.75;1.70;;;;;;;23.45;51.50;99684.03;4389180;32;34654;-80
2022/07/15 06:30:27;;;;;;;4.37;1.80;;;;;;;23.41;51.38;99702.53;4379511;32;33179;-81
2022/07/15 06:32:58;;;;;;;3.37;1.77;;;;;;;23.25;51.80;99697.09;4379938;32;32081;-80
2022/07/15 06:35:26;;;;;;;4.57;1.98;;;;;;;23.38;51.54;99689.16;4394933;32;33547;-81
2022/07/15 06:37:54;;;;;;;5.62;2.05;;;;;;;23.36;51.64;99685.81;4395387;32;34206;-81
2022/07/15 06:40:22;;;;;;;4.30;1.73;;;;;;;23.50;51.24;99689.59;4394561;32;33268;-81
2022/07/15 06:42:49;;;;;;;6.30;2.12;;;;;;;23.25;51.98;99713.91;4370099;32;33217;-81
2022/07/15 06:45:18;;;;;;;3.55;1.75;;;;;;;23.15;52.54;99735.53;4370431;32;34068;-80
2022/07/15 06:47:46;;;;;;;4.35;2.20;;;;;;;23.37;52.07;99740.72;4395164;32;34204;-81
2022/07/15 06:50:13;;;;;;;4.60;1.85;;;;;;;23.56;51.51;99748.13;4395088;32;33848;-81
2022/07/15 06:52:41;;;;;;;5.40;2.15;;;;;;;23.61;51.44;99747.22;4394928;32;33658;-81
2022/07/15 06:55:11;;;;;;;7.07;2.37;;;;;;;23.79;50.77;99763.34;4382375;32;33570;-80
2022/07/15 06:57:42;;;;;;;3.22;1.77;;;;;;;23.62;51.43;99779.72;4395515;32;34683;-80
2022/07/15 07:00:11;;;;;;;4.35;1.83;;;;;;;23.71;51.20;99793.94;4383240;32;33261;-80
2022/07/15 07:03:29;;;;;;;4.62;1.95;;;;;;;23.78;51.15;99812.09;4408779;32;33691;-80
2022/07/15 07:06:14;;;;;;;4.95;2.10;;;;;;;23.69;51.71;99807.41;4384344;32;32727;-81
2022/07/15 07:08:42;;;;;;;3.95;1.85;;;;;;;23.09;53.34;99810.31;4395408;32;33994;-81
2022/07/15 07:11:09;;;;;;;3.85;2.00;;;;;;;23.62;51.91;99818.97;4382742;32;32685;-80
2022/07/15 07:13:37;;;;;;;3.85;2.05;;;;;;;23.22;52.95;99820.06;4382718;32;34478;-80
2022/07/15 07:16:06;;;;;;;5.55;2.20;;;;;;;23.53;51.98;99810.34;4382774;32;34030;-80
2022/07/15 07:18:34;;;;;;;6.80;2.40;;;;;;;23.61;51.82;99806.06;4396138;32;34464;-78
2022/07/15 07:21:04;;;;;;;4.78;2.22;;;;;;;23.35;53.07;99807.38;4384243;32;33706;-79
2022/07/15 07:23:39;;;;;;;4.72;2.10;;;;;;;23.56;52.88;99792.94;4385419;32;34642;-78
2022/07/15 07:26:09;;;;;;;5.45;2.50;;;;;;;23.48;53.73;99807.53;4400096;32;34472;-78
2022/07/15 07:28:42;;;;;;;4.72;2.55;;;;;;;23.10;55.30;99827.97;4372093;32;32152;-78
2022/07/15 07:31:14;;;;;;;4.72;2.50;;;;;;;23.30;55.33;99820.28;4382779;32;33317;-78
2022/07/15 07:33:43;;;;;;;5.28;2.22;;;;;;;23.39;55.18;99837.31;4383187;32;33150;-77
2022/07/15 07:36:16;;;;;;;5.90;2.33;;;;;;;23.50;54.99;99819.28;4395224;32;34380;-78
2022/07/15 07:38:43;;;;;;;6.72;2.58;;;;;;;23.24;55.84;99824.25;4394522;32;32429;-78
2022/07/15 07:41:18;;;;;;;6.45;2.58;;;;;;;23.52;55.28;99810.59;4395247;32;34196;-78
2022/07/15 07:43:48;;;;;;;6.05;2.60;;;;;;;23.60;55.02;99805.25;4395172;32;34281;-79
2022/07/15 07:46:21;;;;;;;5.37;2.80;;;;;;;23.53;55.75;99809.47;4382347;32;33884;-80
2022/07/15 07:48:51;;;;;;;4.62;2.97;;;;;;;23.85;54.75;99825.78;4382390;32;34029;-80
2022/07/15 07:51:45;;;;;;;4.32;2.55;;;;;;;23.83;54.56;99833.66;4384393;32;31923;-80
2022/07/15 07:54:17;;;;;;;;;;;;;;;23.80;54.49;99820.22;4395716;32;34638;-79
2022/07/15 07:56:45;;;;;;;5.72;2.55;;;;;;;23.71;54.44;99806.00;4382539;32;33823;-79
2022/07/15 07:59:16;;;;;;;5.87;3.10;;;;;;;23.83;53.34;99814.88;4394938;32;34710;-79
2022/07/15 08:01:52;;;;;;;7.05;2.67;;;;;;;23.64;54.14;99811.09;4383144;32;33048;-80
2022/07/15 08:04:25;;;;;;;7.07;3.45;;;;;;;23.90;53.45;99804.16;4394858;32;34774;-80
2022/07/15 08:07:02;;;;;;;6.75;3.03;;;;;;;23.93;53.73;99811.97;4395360;32;34864;-79
2022/07/15 08:09:30;;;;;;;6.07;3.08;;;;;;;24.06;53.26;99806.78;4382486;32;32514;-79
2022/07/15 08:12:03;;;;;;;6.37;3.50;;;;;;;23.96;53.72;99825.41;4395061;32;33125;-79
2022/07/15 08:14:31;;;;;;;8.57;3.03;;;;;;;23.87;54.83;99849.59;4391925;32;33861;-80
2022/07/15 08:16:58;;;;;;;5.62;3.17;;;;;;;24.02;54.66;99847.78;4408230;32;35261;-80
2022/07/15 08:19:26;;;;;;;5.90;3.22;;;;;;;23.68;54.85;99857.03;4394830;32;34076;-79
2022/07/15 08:21:54;;;;;;;4.93;3.05;;;;;;;23.89;54.68;99858.53;4394529;32;31801;-79
2022/07/15 08:24:22;;;;;;;4.93;3.30;;;;;;;23.94;54.43;99860.47;4408617;32;33735;-79
2022/07/15 08:26:50;;;;;;;6.68;3.50;;;;;;;23.91;54.58;99867.50;4393952;32;34434;-79
2022/07/15 08:29:18;;;;;;;6.72;3.70;;;;;;;24.05;54.36;99852.81;4408185;32;34696;-78
2022/07/15 08:31:51;;;;;;;8.68;3.92;;;;;;;24.08;54.41;99864.25;4404138;32;34017;-78
2022/07/15 08:34:23;;;;;;;6.95;3.90;;;;;;;23.96;55.11;99859.06;4382013;32;33508;-79
2022/07/15 08:36:59;;;;;;;5.62;3.62;;;;;;;23.95;55.60;99856.53;4375171;32;34540;-80
2022/07/15 08:39:29;;;;;;;5.30;3.42;;;;;;;24.04;55.91;99860.38;4384955;32;34476;-79
2022/07/15 08:41:59;;;;;;;11.48;3.47;;;;;;;24.10;55.61;99853.56;4388975;32;34029;-80
2022/07/15 08:44:35;;;;;;;8.57;3.90;;;;;;;24.04;55.79;99849.19;4389066;32;34577;-79
2022/07/15 08:47:07;;;;;;;8.63;3.75;;;;;;;24.04;56.07;99842.72;4378468;32;34399;-78
2022/07/15 08:50:01;;;;;;;7.28;4.18;;;;;;;24.16;55.59;99829.12;4388978;32;32912;-79
2022/07/15 08:52:32;;;;;;;9.73;4.30;;;;;;;24.09;55.76;99881.91;4391590;32;33278;-78
2022/07/15 08:55:06;;;;;;;7.72;4.07;;;;;;;24.54;54.44;99870.28;4388452;32;34686;-78
2022/07/15 08:57:37;;;;;;;9.88;4.30;;;;;;;24.61;54.13;99873.59;4402832;32;34132;-79
2022/07/15 09:00:17;;;;;;;10.80;4.05;;;;;;;24.41;54.69;99875.75;4377369;32;33924;-79
2022/07/15 09:02:46;;;;;;;7.50;4.53;;;;;;;24.63;53.87;99878.91;4375035;32;31719;-80
2022/07/15 09:05:17;;;;;;;7.15;3.78;;;;;;;24.51;54.09;99876.50;4377245;32;32212;-79
2022/07/15 09:08:05;;;;;;;6.40;4.18;;;;;;;24.54;54.12;99875.06;4396384;32;34686;-78
2022/07/15 09:10:54;;;;;;;7.50;3.95;;;;;;;24.58;53.85;99862.13;4394221;32;34064;-79
2022/07/15 09:13:32;;;;;;;9.02;4.10;;;;;;;24.85;53.04;99893.22;4382546;32;32877;-79
2022/07/15 09:16:08;;;;;;;7.80;3.97;;;;;;;24.75;53.44;99906.53;4375673;32;33196;-78
2022/07/15 09:18:40;;;;;;;;;;;;;;;24.76;53.44;99891.38;4384053;32;34199;-77
2022/07/15 09:21:22;;;;;;;8.43;4.60;;;;;;;24.66;54.03;99866.25;4373298;32;32693;-78
2022/07/15 09:23:53;;;;;;;7.97;3.92;;;;;;;24.71;54.05;99854.94;4372321;32;31626;-78
2022/07/15 09:26:33;;;;;;;10.27;4.68;;;;;;;24.73;53.85;99875.12;4390322;32;34468;-78
2022/07/15 09:36:01;;;;;;;8.07;4.50;;;;;;;24.78;55.40;99903.97;4385018;32;33717;-78
2022/07/15 09:38:01;;;;;;;13.43;4.97;;;;;;;24.53;56.43;99896.69;4390378;32;33712;-79
2022/07/15 09:40:30;;;;;;;10.18;4.62;;;;;;;24.61;55.91;99904.47;4395205;32;32730;-79
2022/07/15 09:43:07;;;;;;;13.27;4.93;;;;;;;24.89;54.79;99905.53;4400210;32;33620;-78
2022/07/15 09:45:40;;;;;;;12.43;4.87;;;;;;;25.06;54.17;99913.53;4399298;32;33388;-78
2022/07/15 09:48:14;;;;;;;14.85;5.03;;;;;;;25.15;54.12;99908.91;4388162;32;34350;-79
2022/07/15 09:50:45;;;;;;;13.18;5.53;;;;;;;25.00;54.47;99916.69;4389105;32;33250;-78
2022/07/15 09:53:14;;;;;;;12.82;4.97;;;;;;;24.97;54.52;99906.03;4390426;32;34201;-78
2022/07/15 09:55:44;;;;;;;11.32;4.55;;;;;;;25.13;53.76;99919.63;4389738;32;33583;-78
2022/07/15 09:58:12;;;;;;;13.00;4.40;;;;;;;25.21;53.33;99913.34;4386844;32;33536;-78
2022/07/15 10:00:45;;;;;;;6.75;4.05;;;;;;;25.17;52.88;99900.19;4395712;32;34956;-78
2022/07/15 10:03:15;;;;;;;7.68;4.07;;;;;;;25.09;52.64;99886.81;4385565;32;33528;-78
2022/07/15 10:05:46;;;;;;;12.48;4.70;;;;;;;24.87;53.56;99871.31;4392605;32;31781;-78
2022/07/15 10:08:17;;;;;;;8.80;4.50;;;;;;;25.07;52.91;99839.38;4381496;32;33886;-78
2022/07/15 10:10:51;;;;;;;7.35;3.83;;;;;;;25.12;53.13;99816.00;4397393;32;34331;-78
2022/07/15 10:13:28;;;;;;;7.25;4.22;;;;;;;25.03;53.65;99818.63;4399215;32;33927;-78
2022/07/15 10:16:22;;;;;;;10.48;4.22;;;;;;;25.23;53.14;99831.56;4405680;32;33087;-79
2022/07/15 10:19:06;;;;;;;13.38;4.47;;;;;;;25.45;52.57;99856.22;4391604;32;34352;-77
2022/07/15 10:21:53;;;;;;;13.00;4.57;;;;;;;25.46;52.37;99857.91;4407305;32;35291;-77
2022/07/15 10:24:48;;;;;;;8.40;4.03;;;;;;;25.48;51.57;99848.03;4401049;32;34584;-78
2022/07/15 10:27:31;;;;;;;6.65;4.12;;;;;;;25.26;52.29;99829.00;4405552;32;32843;-78
2022/07/15 10:30:09;;;;;;;8.88;4.62;;;;;;;25.25;52.58;99810.47;4386661;32;32969;-78
2022/07/15 10:33:05;;;;;;;7.80;4.07;;;;;;;25.40;52.71;99797.28;4381428;32;32802;-78
2022/07/15 10:35:57;;;;;;;6.80;3.40;;;;;;;25.38;52.75;99799.56;4390190;32;35261;-78
2022/07/15 10:38:33;;;;;;;6.37;2.78;;;;;;;25.19;47.53;99808.03;4388014;32;32055;-78
2022/07/15 10:41:06;;;;;;;5.85;2.37;;;;;;;25.24;46.51;99824.81;4381188;32;33199;-79
2022/07/15 10:44:18;;;;;;;6.10;2.40;;;;;;;25.10;43.68;99829.50;4384201;32;33133;-78
2022/07/15 10:47:13;;;;;;;6.82;2.42;;;;;;;25.57;41.86;99842.56;4338946;32;33541;-77
2022/07/15 10:49:52;;;;;;;11.88;2.37;;;;;;;25.78;39.14;99846.75;4331872;33;33263;-78
2022/07/15 10:52:25;;;;;;;7.28;2.40;;;;;;;26.00;39.75;99846.09;4373583;32;35330;-78
2022/07/15 10:55:04;;;;;;;9.80;2.33;;;;;;;26.19;37.77;99851.69;4398761;32;34413;-78
2022/07/15 10:57:41;;;;;;;4.35;1.87;;;;;;;26.27;36.41;99850.97;4386605;32;34662;-80
2022/07/15 11:00:23;;;;;;;13.07;2.42;;;;;;;26.22;33.47;99846.28;4393634;32;32777;-80
2022/07/15 11:03:08;;;;;;;5.22;2.00;;;;;;;26.05;34.34;99843.19;4394775;32;33998;-78
2022/07/15 11:05:48;;;;;;;5.72;2.00;;;;;;;26.23;32.30;99835.84;4381828;32;34929;-77
2022/07/15 11:08:37;;;;;;;4.03;1.95;;;;;;;26.42;32.10;99842.28;4394107;32;34593;-78
2022/07/15 11:11:27;;;;;;;5.70;1.85;;;;;;;26.36;31.12;99834.25;4379350;32;31792;-78
2022/07/15 11:13:55;;;;;;;4.28;1.98;;;;;;;26.39;32.06;99839.25;4405835;32;34314;-80
2022/07/15 11:16:23;;;;;;;5.68;2.30;;;;;;;26.31;30.46;99829.56;4407870;32;34261;-78
2022/07/15 11:18:53;;;;;;;3.65;1.70;;;;;;;26.16;31.17;99838.22;4381938;32;34635;-79
2022/07/15 11:21:22;;;;;;;4.37;2.10;;;;;;;26.36;30.17;99837.91;4385846;32;34331;-80
2022/07/15 11:23:56;;;;;;;9.18;1.92;;;;;;;26.31;29.90;99843.63;4385432;32;34446;-78
2022/07/15 11:26:47;;;;;;;5.78;2.03;;;;;;;26.32;29.80;99831.22;4381175;32;35012;-80
2022/07/15 11:29:23;;;;;;;6.78;1.90;;;;;;;26.73;30.94;99834.06;4393038;32;33182;-80
2022/07/15 11:31:55;;;;;;;5.95;2.25;;;;;;;26.68;31.00;99828.53;4392832;32;33158;-80
2022/07/15 11:34:23;;;;;;;4.78;1.90;;;;;;;26.86;30.37;99835.22;4385880;32;33870;-80
2022/07/15 11:37:09;;;;;;;5.47;1.90;;;;;;;27.01;29.33;99836.91;4369226;32;34609;-79
2022/07/15 11:39:47;;;;;;;8.82;2.10;;;;;;;26.99;29.35;99827.94;4396348;32;34278;-80
2022/07/15 11:45:11;;;;;;;5.12;2.03;;;;;;;27.48;29.27;99835.56;4385139;32;33844;-79
2022/07/15 11:47:51;;;;;;;4.72;2.05;;;;;;;27.59;28.72;99820.09;4388115;32;33219;-79
2022/07/15 11:50:21;;;;;;;4.70;2.00;;;;;;;27.47;27.89;99836.69;4395070;32;33756;-79
2022/07/15 11:53:00;;;;;;;8.02;2.08;;;;;;;27.42;27.25;99819.91;4379724;32;33304;-79
2022/07/15 11:55:31;;;;;;;6.55;2.22;;;;;;;27.23;27.21;99822.91;4382302;32;33888;-79
2022/07/15 11:57:59;;;;;;;6.00;2.15;;;;;;;27.09;28.52;99822.09;4381098;32;35171;-78
2022/07/15 12:00:30;;;;;;;8.98;2.10;;;;;;;27.19;27.17;99828.34;4389460;32;34557;-77
2022/07/15 12:03:08;;;;;;;4.95;2.33;;;;;;;27.25;27.42;99831.88;4381361;32;32790;-78
2022/07/15 12:05:35;;;;;;;5.15;2.55;;;;;;;27.44;28.81;99834.50;4363104;32;32156;-77
2022/07/15 12:08:04;;;;;;;5.75;2.17;;;;;;;27.62;28.32;99836.38;4379092;32;34041;-78
2022/07/15 12:10:35;;;;;;;4.37;2.08;;;;;;;27.35;27.69;99836.41;4390435;32;33762;-80
2022/07/15 12:13:04;;;;;;;7.43;2.20;;;;;;;27.40;27.05;99842.78;4391484;32;32027;-79